Lambrook, Arkansas
Current Conditions -  °F | °C
As of 2:55 AM on Sunday 26 Oct 2014 (Local Time) from KCKM Reporting Station
Clear Clear  
Wind Chill: 64°   Ceiling: Unl
Heat Index: 64°   Visibility: 5mi
Dew Point: 64°   Wind: 5mph
Humidity: 100%   Direction: 210°SSW
Pressure: 30.02"   Gusts: NA
Location:  34.34°N, 90.97°W
Report Text: KCKM 260755Z AUTO 21004KT 5SM CLR 18/18 A3002 RMK AO1
Loading
Personal Weather Stations






























Interactive Weather Map
Tropical Storm Tracking
New forecast layout! Learn more

10-Day Weather Forecast

Advertisements
Track Severe Weather on mobile